Terminal Aerodrome Forecast
Issued by NWS

Home | Current Version | Previous Version | Text Only | Print | Product List | Glossary On
Versions: 1 2 3 4 5 6 7 8 9 10 11 12 13 14 15 16 17 18 19 20 21
000
FTUS44 KLIX 011504 AAA
TAFGPT
TAF AMD
KGPT 011504Z 0115/0212 16012KT P6SM BKN009 OVC020
     FM011600 16011KT P6SM VCTS SCT012 OVC025CB
     FM020000 16008KT P6SM OVC060
     FM020200 15007KT P6SM OVC030
     FM020400 14007KT P6SM BKN010=

USA.gov is the U.S. government's official web portal to all federal, state and local government web resources and services.